sensor_id;sensor_type;location;lat;lon;timestamp;P1;durP1;ratioP1;P2;durP2;ratioP2
3647;SDS011;1840;48.892;15.312;2023-04-03T00:01:13;7.20;;;4.60;;
3647;SDS011;1840;48.892;15.312;2023-04-03T00:03:41;6.47;;;4.70;;
3647;SDS011;1840;48.892;15.312;2023-04-03T00:06:09;7.07;;;4.60;;
3647;SDS011;1840;48.892;15.312;2023-04-03T00:08:40;5.60;;;4.00;;
3647;SDS011;1840;48.892;15.312;2023-04-03T00:11:08;7.83;;;4.70;;
3647;SDS011;1840;48.892;15.312;2023-04-03T00:13:37;8.60;;;4.40;;
3647;SDS011;1840;48.892;15.312;2023-04-03T00:16:05;8.40;;;4.80;;
3647;SDS011;1840;48.892;15.312;2023-04-03T00:18:34;5.60;;;4.57;;
3647;SDS011;1840;48.892;15.312;2023-04-03T00:21:03;9.03;;;4.77;;
3647;SDS011;1840;48.892;15.312;2023-04-03T00:23:31;7.30;;;4.67;;
3647;SDS011;1840;48.892;15.312;2023-04-03T00:26:01;8.37;;;5.13;;
3647;SDS011;1840;48.892;15.312;2023-04-03T00:28:33;6.70;;;4.30;;
3647;SDS011;1840;48.892;15.312;2023-04-03T00:31:01;10.00;;;4.87;;
3647;SDS011;1840;48.892;15.312;2023-04-03T00:33:29;9.40;;;5.07;;
3647;SDS011;1840;48.892;15.312;2023-04-03T00:35:57;5.30;;;4.20;;
3647;SDS011;1840;48.892;15.312;2023-04-03T00:38:26;7.90;;;4.43;;
3647;SDS011;1840;48.892;15.312;2023-04-03T00:40:54;6.90;;;5.00;;
3647;SDS011;1840;48.892;15.312;2023-04-03T00:43:24;8.43;;;4.83;;
3647;SDS011;1840;48.892;15.312;2023-04-03T00:45:54;8.00;;;4.70;;
3647;SDS011;1840;48.892;15.312;2023-04-03T00:48:24;5.93;;;4.47;;
3647;SDS011;1840;48.892;15.312;2023-04-03T00:50:55;7.60;;;4.90;;
3647;SDS011;1840;48.892;15.312;2023-04-03T00:53:24;6.77;;;4.57;;
3647;SDS011;1840;48.892;15.312;2023-04-03T00:55:54;8.27;;;5.10;;
3647;SDS011;1840;48.892;15.312;2023-04-03T00:58:27;9.10;;;5.10;;
3647;SDS011;1840;48.892;15.312;2023-04-03T01:01:02;7.10;;;4.83;;
3647;SDS011;1840;48.892;15.312;2023-04-03T01:03:34;6.97;;;4.50;;
3647;SDS011;1840;48.892;15.312;2023-04-03T01:06:02;26.23;;;6.70;;
3647;SDS011;1840;48.892;15.312;2023-04-03T01:08:31;7.57;;;4.73;;
3647;SDS011;1840;48.892;15.312;2023-04-03T01:10:59;5.70;;;3.80;;
3647;SDS011;1840;48.892;15.312;2023-04-03T01:13:30;12.50;;;6.13;;
3647;SDS011;1840;48.892;15.312;2023-04-03T01:16:00;7.90;;;4.97;;
3647;SDS011;1840;48.892;15.312;2023-04-03T01:18:29;7.93;;;4.87;;
3647;SDS011;1840;48.892;15.312;2023-04-03T01:21:07;6.20;;;4.83;;
3647;SDS011;1840;48.892;15.312;2023-04-03T01:24:08;7.40;;;4.60;;
3647;SDS011;1840;48.892;15.312;2023-04-03T01:26:46;6.20;;;4.23;;
3647;SDS011;1840;48.892;15.312;2023-04-03T01:29:15;9.80;;;5.30;;
3647;SDS011;1840;48.892;15.312;2023-04-03T01:31:50;6.93;;;4.20;;
3647;SDS011;1840;48.892;15.312;2023-04-03T01:34:19;9.07;;;4.00;;
3647;SDS011;1840;48.892;15.312;2023-04-03T01:36:48;7.17;;;4.13;;
3647;SDS011;1840;48.892;15.312;2023-04-03T01:39:16;6.27;;;4.03;;
3647;SDS011;1840;48.892;15.312;2023-04-03T01:41:44;6.27;;;4.40;;
3647;SDS011;1840;48.892;15.312;2023-04-03T01:44:13;7.60;;;4.50;;
3647;SDS011;1840;48.892;15.312;2023-04-03T01:46:41;9.80;;;4.53;;
3647;SDS011;1840;48.892;15.312;2023-04-03T01:49:10;5.13;;;3.53;;
3647;SDS011;1840;48.892;15.312;2023-04-03T01:51:38;4.10;;;3.40;;
3647;SDS011;1840;48.892;15.312;2023-04-03T01:54:06;7.67;;;4.10;;
3647;SDS011;1840;48.892;15.312;2023-04-03T01:56:34;7.90;;;4.23;;
3647;SDS011;1840;48.892;15.312;2023-04-03T01:59:03;8.07;;;3.93;;
3647;SDS011;1840;48.892;15.312;2023-04-03T02:01:31;7.87;;;4.27;;
3647;SDS011;1840;48.892;15.312;2023-04-03T02:03:59;6.03;;;4.20;;
3647;SDS011;1840;48.892;15.312;2023-04-03T02:06:29;6.87;;;3.70;;
3647;SDS011;1840;48.892;15.312;2023-04-03T02:08:57;9.70;;;4.47;;
3647;SDS011;1840;48.892;15.312;2023-04-03T02:11:24;7.90;;;4.53;;
3647;SDS011;1840;48.892;15.312;2023-04-03T02:13:52;6.00;;;3.50;;
3647;SDS011;1840;48.892;15.312;2023-04-03T02:16:20;7.00;;;3.97;;
3647;SDS011;1840;48.892;15.312;2023-04-03T02:18:49;6.30;;;4.40;;
3647;SDS011;1840;48.892;15.312;2023-04-03T02:21:17;9.30;;;4.20;;
3647;SDS011;1840;48.892;15.312;2023-04-03T02:23:46;8.23;;;4.27;;
3647;SDS011;1840;48.892;15.312;2023-04-03T02:26:15;5.83;;;3.83;;
3647;SDS011;1840;48.892;15.312;2023-04-03T02:28:44;7.17;;;4.40;;
3647;SDS011;1840;48.892;15.312;2023-04-03T02:31:12;7.90;;;4.67;;
3647;SDS011;1840;48.892;15.312;2023-04-03T02:33:40;8.70;;;4.30;;
3647;SDS011;1840;48.892;15.312;2023-04-03T02:36:08;6.70;;;4.37;;
3647;SDS011;1840;48.892;15.312;2023-04-03T02:38:37;11.57;;;5.47;;
3647;SDS011;1840;48.892;15.312;2023-04-03T02:41:06;10.03;;;5.20;;
3647;SDS011;1840;48.892;15.312;2023-04-03T02:43:36;9.57;;;4.83;;
3647;SDS011;1840;48.892;15.312;2023-04-03T02:46:05;11.07;;;4.93;;
3647;SDS011;1840;48.892;15.312;2023-04-03T02:48:34;10.23;;;4.67;;
3647;SDS011;1840;48.892;15.312;2023-04-03T02:51:02;7.93;;;4.70;;
3647;SDS011;1840;48.892;15.312;2023-04-03T02:53:30;7.87;;;4.47;;
3647;SDS011;1840;48.892;15.312;2023-04-03T02:55:58;9.80;;;5.00;;
3647;SDS011;1840;48.892;15.312;2023-04-03T02:58:28;11.37;;;4.67;;
3647;SDS011;1840;48.892;15.312;2023-04-03T03:00:56;7.70;;;4.40;;
3647;SDS011;1840;48.892;15.312;2023-04-03T03:03:24;18.27;;;5.60;;
3647;SDS011;1840;48.892;15.312;2023-04-03T03:06:00;6.37;;;4.17;;
3647;SDS011;1840;48.892;15.312;2023-04-03T03:08:29;6.47;;;4.10;;
3647;SDS011;1840;48.892;15.312;2023-04-03T03:10:57;40.37;;;6.73;;
3647;SDS011;1840;48.892;15.312;2023-04-03T03:13:25;6.37;;;3.60;;
3647;SDS011;1840;48.892;15.312;2023-04-03T03:15:55;7.87;;;3.63;;
3647;SDS011;1840;48.892;15.312;2023-04-03T03:18:23;4.70;;;3.10;;
3647;SDS011;1840;48.892;15.312;2023-04-03T03:20:51;8.80;;;3.47;;
3647;SDS011;1840;48.892;15.312;2023-04-03T03:23:22;5.87;;;3.00;;
3647;SDS011;1840;48.892;15.312;2023-04-03T03:25:54;5.37;;;2.87;;
3647;SDS011;1840;48.892;15.312;2023-04-03T03:28:22;5.43;;;3.80;;
3647;SDS011;1840;48.892;15.312;2023-04-03T03:30:52;5.40;;;3.17;;
3647;SDS011;1840;48.892;15.312;2023-04-03T03:33:20;4.53;;;2.83;;
3647;SDS011;1840;48.892;15.312;2023-04-03T03:35:48;6.40;;;3.13;;
3647;SDS011;1840;48.892;15.312;2023-04-03T03:38:17;5.40;;;3.20;;
3647;SDS011;1840;48.892;15.312;2023-04-03T03:40:46;6.53;;;3.63;;
3647;SDS011;1840;48.892;15.312;2023-04-03T03:43:14;8.97;;;3.70;;
3647;SDS011;1840;48.892;15.312;2023-04-03T03:45:43;5.63;;;3.27;;
3647;SDS011;1840;48.892;15.312;2023-04-03T03:48:14;8.07;;;4.07;;
3647;SDS011;1840;48.892;15.312;2023-04-03T03:50:42;6.80;;;3.83;;
3647;SDS011;1840;48.892;15.312;2023-04-03T03:53:11;6.00;;;3.60;;
3647;SDS011;1840;48.892;15.312;2023-04-03T03:55:39;7.00;;;3.50;;
3647;SDS011;1840;48.892;15.312;2023-04-03T03:58:07;8.20;;;4.17;;
3647;SDS011;1840;48.892;15.312;2023-04-03T04:00:35;5.53;;;3.70;;
3647;SDS011;1840;48.892;15.312;2023-04-03T04:03:04;9.43;;;3.90;;
3647;SDS011;1840;48.892;15.312;2023-04-03T04:05:34;10.70;;;3.33;;
3647;SDS011;1840;48.892;15.312;2023-04-03T04:08:02;11.73;;;4.10;;
3647;SDS011;1840;48.892;15.312;2023-04-03T04:10:31;7.10;;;3.93;;
3647;SDS011;1840;48.892;15.312;2023-04-03T04:12:59;6.97;;;3.90;;
3647;SDS011;1840;48.892;15.312;2023-04-03T04:15:28;16.50;;;4.40;;
3647;SDS011;1840;48.892;15.312;2023-04-03T04:17:57;7.03;;;3.60;;
3647;SDS011;1840;48.892;15.312;2023-04-03T04:20:26;7.93;;;3.90;;
3647;SDS011;1840;48.892;15.312;2023-04-03T04:22:55;7.33;;;3.83;;
3647;SDS011;1840;48.892;15.312;2023-04-03T04:25:23;7.77;;;4.33;;
3647;SDS011;1840;48.892;15.312;2023-04-03T04:27:51;7.63;;;4.00;;
3647;SDS011;1840;48.892;15.312;2023-04-03T04:30:19;6.10;;;4.60;;
3647;SDS011;1840;48.892;15.312;2023-04-03T04:32:48;8.33;;;4.30;;
3647;SDS011;1840;48.892;15.312;2023-04-03T04:35:16;8.30;;;4.77;;
3647;SDS011;1840;48.892;15.312;2023-04-03T04:37:44;8.07;;;4.80;;
3647;SDS011;1840;48.892;15.312;2023-04-03T04:40:14;5.40;;;4.00;;
3647;SDS011;1840;48.892;15.312;2023-04-03T04:42:42;6.40;;;3.80;;
3647;SDS011;1840;48.892;15.312;2023-04-03T04:45:10;6.60;;;4.63;;
3647;SDS011;1840;48.892;15.312;2023-04-03T04:47:38;9.20;;;4.83;;
3647;SDS011;1840;48.892;15.312;2023-04-03T04:50:06;9.67;;;5.20;;
3647;SDS011;1840;48.892;15.312;2023-04-03T04:52:35;8.07;;;4.83;;
3647;SDS011;1840;48.892;15.312;2023-04-03T04:55:04;9.40;;;5.73;;
3647;SDS011;1840;48.892;15.312;2023-04-03T04:57:34;7.57;;;5.27;;
3647;SDS011;1840;48.892;15.312;2023-04-03T05:00:04;10.23;;;5.30;;
3647;SDS011;1840;48.892;15.312;2023-04-03T05:02:33;10.07;;;5.90;;
3647;SDS011;1840;48.892;15.312;2023-04-03T05:05:01;7.90;;;5.60;;
3647;SDS011;1840;48.892;15.312;2023-04-03T05:07:30;10.30;;;5.50;;
3647;SDS011;1840;48.892;15.312;2023-04-03T05:09:58;6.40;;;4.63;;
3647;SDS011;1840;48.892;15.312;2023-04-03T05:12:26;10.20;;;5.60;;
3647;SDS011;1840;48.892;15.312;2023-04-03T05:14:56;8.63;;;5.30;;
3647;SDS011;1840;48.892;15.312;2023-04-03T05:17:24;8.00;;;4.90;;
3647;SDS011;1840;48.892;15.312;2023-04-03T05:19:52;10.60;;;5.17;;
3647;SDS011;1840;48.892;15.312;2023-04-03T05:22:20;7.83;;;4.90;;
3647;SDS011;1840;48.892;15.312;2023-04-03T05:24:49;6.17;;;4.57;;
3647;SDS011;1840;48.892;15.312;2023-04-03T05:27:17;10.23;;;4.77;;
3647;SDS011;1840;48.892;15.312;2023-04-03T05:29:46;8.80;;;4.63;;
3647;SDS011;1840;48.892;15.312;2023-04-03T05:32:16;6.07;;;4.37;;
3647;SDS011;1840;48.892;15.312;2023-04-03T05:34:44;13.63;;;4.87;;
3647;SDS011;1840;48.892;15.312;2023-04-03T05:37:12;6.63;;;3.90;;
3647;SDS011;1840;48.892;15.312;2023-04-03T05:39:40;8.00;;;3.90;;
3647;SDS011;1840;48.892;15.312;2023-04-03T05:42:09;8.93;;;4.20;;
3647;SDS011;1840;48.892;15.312;2023-04-03T05:44:37;5.87;;;3.57;;
3647;SDS011;1840;48.892;15.312;2023-04-03T05:47:07;9.50;;;4.90;;
3647;SDS011;1840;48.892;15.312;2023-04-03T05:49:36;10.17;;;4.23;;
3647;SDS011;1840;48.892;15.312;2023-04-03T05:52:08;8.50;;;4.67;;
3647;SDS011;1840;48.892;15.312;2023-04-03T05:54:44;8.63;;;4.63;;
3647;SDS011;1840;48.892;15.312;2023-04-03T05:57:14;12.77;;;5.13;;
3647;SDS011;1840;48.892;15.312;2023-04-03T05:59:43;7.23;;;4.73;;
3647;SDS011;1840;48.892;15.312;2023-04-03T06:02:13;8.43;;;5.20;;
3647;SDS011;1840;48.892;15.312;2023-04-03T06:04:45;9.93;;;5.50;;
3647;SDS011;1840;48.892;15.312;2023-04-03T06:07:15;8.23;;;4.70;;
3647;SDS011;1840;48.892;15.312;2023-04-03T06:09:45;7.70;;;4.83;;
3647;SDS011;1840;48.892;15.312;2023-04-03T06:12:13;11.63;;;4.90;;
3647;SDS011;1840;48.892;15.312;2023-04-03T06:14:42;10.60;;;5.10;;
3647;SDS011;1840;48.892;15.312;2023-04-03T06:17:12;9.30;;;4.90;;
3647;SDS011;1840;48.892;15.312;2023-04-03T06:19:41;9.20;;;4.60;;
3647;SDS011;1840;48.892;15.312;2023-04-03T06:22:11;9.10;;;4.70;;
3647;SDS011;1840;48.892;15.312;2023-04-03T06:24:39;10.83;;;5.37;;
3647;SDS011;1840;48.892;15.312;2023-04-03T06:27:08;10.80;;;5.50;;
3647;SDS011;1840;48.892;15.312;2023-04-03T06:29:37;8.00;;;4.87;;
3647;SDS011;1840;48.892;15.312;2023-04-03T06:32:06;13.83;;;5.40;;
3647;SDS011;1840;48.892;15.312;2023-04-03T06:34:34;18.77;;;5.33;;
3647;SDS011;1840;48.892;15.312;2023-04-03T06:37:02;13.53;;;5.83;;
3647;SDS011;1840;48.892;15.312;2023-04-03T06:39:31;8.50;;;4.37;;
3647;SDS011;1840;48.892;15.312;2023-04-03T06:41:59;7.07;;;4.10;;
3647;SDS011;1840;48.892;15.312;2023-04-03T06:44:28;8.50;;;4.17;;
3647;SDS011;1840;48.892;15.312;2023-04-03T06:46:56;8.20;;;4.27;;
3647;SDS011;1840;48.892;15.312;2023-04-03T06:49:23;8.10;;;4.40;;
3647;SDS011;1840;48.892;15.312;2023-04-03T06:51:52;7.27;;;3.83;;
3647;SDS011;1840;48.892;15.312;2023-04-03T06:54:20;7.60;;;3.80;;
3647;SDS011;1840;48.892;15.312;2023-04-03T06:56:50;11.00;;;3.60;;
3647;SDS011;1840;48.892;15.312;2023-04-03T06:59:19;8.00;;;4.27;;
3647;SDS011;1840;48.892;15.312;2023-04-03T07:01:47;5.80;;;3.60;;
3647;SDS011;1840;48.892;15.312;2023-04-03T07:04:16;9.40;;;4.13;;
3647;SDS011;1840;48.892;15.312;2023-04-03T07:06:47;6.47;;;3.23;;
3647;SDS011;1840;48.892;15.312;2023-04-03T07:09:15;5.53;;;3.43;;
3647;SDS011;1840;48.892;15.312;2023-04-03T07:11:44;7.60;;;4.53;;
3647;SDS011;1840;48.892;15.312;2023-04-03T07:14:13;6.47;;;3.80;;
3647;SDS011;1840;48.892;15.312;2023-04-03T07:16:41;7.60;;;3.80;;
3647;SDS011;1840;48.892;15.312;2023-04-03T07:19:09;8.63;;;4.13;;
3647;SDS011;1840;48.892;15.312;2023-04-03T07:21:38;6.23;;;3.50;;
3647;SDS011;1840;48.892;15.312;2023-04-03T07:24:08;6.43;;;3.87;;
3647;SDS011;1840;48.892;15.312;2023-04-03T07:26:41;8.70;;;3.80;;
3647;SDS011;1840;48.892;15.312;2023-04-03T07:29:11;8.90;;;4.20;;
3647;SDS011;1840;48.892;15.312;2023-04-03T07:31:41;7.23;;;4.40;;
3647;SDS011;1840;48.892;15.312;2023-04-03T07:34:11;8.37;;;4.43;;
3647;SDS011;1840;48.892;15.312;2023-04-03T07:36:40;10.40;;;4.90;;
3647;SDS011;1840;48.892;15.312;2023-04-03T07:39:08;9.63;;;4.63;;
3647;SDS011;1840;48.892;15.312;2023-04-03T07:41:37;9.10;;;4.67;;
3647;SDS011;1840;48.892;15.312;2023-04-03T07:44:05;8.10;;;3.80;;
3647;SDS011;1840;48.892;15.312;2023-04-03T07:46:36;6.73;;;3.87;;
3647;SDS011;1840;48.892;15.312;2023-04-03T07:49:05;7.80;;;4.63;;
3647;SDS011;1840;48.892;15.312;2023-04-03T07:51:34;6.30;;;4.20;;
3647;SDS011;1840;48.892;15.312;2023-04-03T07:54:02;6.33;;;4.10;;
3647;SDS011;1840;48.892;15.312;2023-04-03T07:56:31;5.67;;;4.27;;
3647;SDS011;1840;48.892;15.312;2023-04-03T07:58:59;5.83;;;4.23;;
3647;SDS011;1840;48.892;15.312;2023-04-03T08:01:28;7.27;;;4.27;;
3647;SDS011;1840;48.892;15.312;2023-04-03T08:03:58;6.93;;;4.20;;
3647;SDS011;1840;48.892;15.312;2023-04-03T08:06:30;6.77;;;4.17;;
3647;SDS011;1840;48.892;15.312;2023-04-03T08:09:12;7.67;;;4.60;;
3647;SDS011;1840;48.892;15.312;2023-04-03T08:11:40;10.60;;;4.50;;
3647;SDS011;1840;48.892;15.312;2023-04-03T08:14:09;6.33;;;4.53;;
3647;SDS011;1840;48.892;15.312;2023-04-03T08:16:42;10.23;;;4.70;;
3647;SDS011;1840;48.892;15.312;2023-04-03T08:19:11;8.33;;;4.47;;
3647;SDS011;1840;48.892;15.312;2023-04-03T08:21:53;8.50;;;4.73;;
3647;SDS011;1840;48.892;15.312;2023-04-03T08:24:23;6.00;;;3.87;;
3647;SDS011;1840;48.892;15.312;2023-04-03T08:26:51;7.33;;;5.13;;
3647;SDS011;1840;48.892;15.312;2023-04-03T08:29:19;10.40;;;5.47;;
3647;SDS011;1840;48.892;15.312;2023-04-03T08:31:48;8.50;;;4.70;;
3647;SDS011;1840;48.892;15.312;2023-04-03T08:34:17;7.00;;;4.57;;
3647;SDS011;1840;48.892;15.312;2023-04-03T08:36:45;7.40;;;4.50;;
3647;SDS011;1840;48.892;15.312;2023-04-03T08:39:15;8.03;;;4.27;;
3647;SDS011;1840;48.892;15.312;2023-04-03T08:41:44;9.00;;;4.40;;
3647;SDS011;1840;48.892;15.312;2023-04-03T08:44:15;7.30;;;4.83;;
3647;SDS011;1840;48.892;15.312;2023-04-03T08:46:54;7.60;;;5.20;;
3647;SDS011;1840;48.892;15.312;2023-04-03T08:49:31;8.03;;;4.60;;
3647;SDS011;1840;48.892;15.312;2023-04-03T08:52:04;8.33;;;4.67;;
3647;SDS011;1840;48.892;15.312;2023-04-03T08:54:40;8.60;;;3.93;;
3647;SDS011;1840;48.892;15.312;2023-04-03T08:57:17;5.30;;;4.30;;
3647;SDS011;1840;48.892;15.312;2023-04-03T08:59:50;9.70;;;4.40;;
3647;SDS011;1840;48.892;15.312;2023-04-03T09:02:23;6.07;;;4.07;;
3647;SDS011;1840;48.892;15.312;2023-04-03T09:04:54;5.60;;;4.07;;
3647;SDS011;1840;48.892;15.312;2023-04-03T09:07:25;9.17;;;4.40;;
3647;SDS011;1840;48.892;15.312;2023-04-03T09:10:02;7.30;;;3.23;;
3647;SDS011;1840;48.892;15.312;2023-04-03T09:12:32;5.03;;;3.30;;
3647;SDS011;1840;48.892;15.312;2023-04-03T09:15:06;4.77;;;2.73;;
3647;SDS011;1840;48.892;15.312;2023-04-03T09:17:53;9.00;;;3.90;;
3647;SDS011;1840;48.892;15.312;2023-04-03T09:20:27;5.87;;;3.30;;
3647;SDS011;1840;48.892;15.312;2023-04-03T09:23:10;6.27;;;2.60;;
3647;SDS011;1840;48.892;15.312;2023-04-03T09:25:47;4.83;;;2.60;;
3647;SDS011;1840;48.892;15.312;2023-04-03T09:28:16;5.60;;;2.70;;
3647;SDS011;1840;48.892;15.312;2023-04-03T09:30:44;5.50;;;2.63;;
3647;SDS011;1840;48.892;15.312;2023-04-03T09:33:12;7.20;;;2.93;;
3647;SDS011;1840;48.892;15.312;2023-04-03T09:35:41;6.30;;;3.10;;
3647;SDS011;1840;48.892;15.312;2023-04-03T09:38:15;5.33;;;2.53;;
3647;SDS011;1840;48.892;15.312;2023-04-03T09:40:49;4.43;;;2.50;;
3647;SDS011;1840;48.892;15.312;2023-04-03T09:43:31;8.30;;;3.23;;
3647;SDS011;1840;48.892;15.312;2023-04-03T09:48:55;5.80;;;2.93;;
3647;SDS011;1840;48.892;15.312;2023-04-03T09:51:34;6.20;;;3.37;;
3647;SDS011;1840;48.892;15.312;2023-04-03T09:54:23;5.27;;;2.73;;
3647;SDS011;1840;48.892;15.312;2023-04-03T09:57:03;4.27;;;2.37;;
3647;SDS011;1840;48.892;15.312;2023-04-03T09:59:34;5.50;;;3.10;;
3647;SDS011;1840;48.892;15.312;2023-04-03T10:02:03;5.93;;;2.73;;
3647;SDS011;1840;48.892;15.312;2023-04-03T10:04:43;3.80;;;2.63;;
3647;SDS011;1840;48.892;15.312;2023-04-03T10:07:25;4.07;;;2.30;;
3647;SDS011;1840;48.892;15.312;2023-04-03T10:09:56;6.10;;;3.27;;
3647;SDS011;1840;48.892;15.312;2023-04-03T10:12:26;5.20;;;2.83;;
3647;SDS011;1840;48.892;15.312;2023-04-03T10:14:55;5.70;;;3.80;;
3647;SDS011;1840;48.892;15.312;2023-04-03T10:17:27;5.60;;;3.20;;
3647;SDS011;1840;48.892;15.312;2023-04-03T10:20:07;6.27;;;2.70;;
3647;SDS011;1840;48.892;15.312;2023-04-03T10:22:42;5.57;;;3.50;;
3647;SDS011;1840;48.892;15.312;2023-04-03T10:25:28;7.93;;;4.30;;
3647;SDS011;1840;48.892;15.312;2023-04-03T10:28:03;5.80;;;3.47;;
3647;SDS011;1840;48.892;15.312;2023-04-03T10:30:41;6.37;;;4.17;;
3647;SDS011;1840;48.892;15.312;2023-04-03T10:33:24;5.83;;;3.50;;
3647;SDS011;1840;48.892;15.312;2023-04-03T10:36:07;6.10;;;3.30;;
3647;SDS011;1840;48.892;15.312;2023-04-03T10:38:43;5.77;;;3.13;;
3647;SDS011;1840;48.892;15.312;2023-04-03T10:41:21;5.47;;;2.83;;
3647;SDS011;1840;48.892;15.312;2023-04-03T10:44:02;7.50;;;3.40;;
3647;SDS011;1840;48.892;15.312;2023-04-03T10:46:38;5.50;;;3.20;;
3647;SDS011;1840;48.892;15.312;2023-04-03T10:49:20;7.37;;;3.20;;
3647;SDS011;1840;48.892;15.312;2023-04-03T10:51:56;5.90;;;3.33;;
3647;SDS011;1840;48.892;15.312;2023-04-03T10:54:34;5.30;;;3.33;;
3647;SDS011;1840;48.892;15.312;2023-04-03T10:57:07;13.43;;;4.20;;
3647;SDS011;1840;48.892;15.312;2023-04-03T10:59:43;5.27;;;3.23;;
3647;SDS011;1840;48.892;15.312;2023-04-03T11:02:17;6.40;;;3.53;;
3647;SDS011;1840;48.892;15.312;2023-04-03T11:04:56;7.17;;;3.30;;
3647;SDS011;1840;48.892;15.312;2023-04-03T11:07:29;5.17;;;3.07;;
3647;SDS011;1840;48.892;15.312;2023-04-03T11:10:05;5.60;;;3.60;;
3647;SDS011;1840;48.892;15.312;2023-04-03T11:12:42;8.73;;;3.53;;
3647;SDS011;1840;48.892;15.312;2023-04-03T11:15:15;6.90;;;4.03;;
3647;SDS011;1840;48.892;15.312;2023-04-03T11:17:45;6.40;;;3.27;;
3647;SDS011;1840;48.892;15.312;2023-04-03T11:20:17;8.97;;;3.50;;
3647;SDS011;1840;48.892;15.312;2023-04-03T11:22:56;6.70;;;3.47;;
3647;SDS011;1840;48.892;15.312;2023-04-03T11:25:27;5.23;;;2.57;;
3647;SDS011;1840;48.892;15.312;2023-04-03T11:27:58;5.43;;;2.77;;
3647;SDS011;1840;48.892;15.312;2023-04-03T11:30:32;7.83;;;2.83;;
3647;SDS011;1840;48.892;15.312;2023-04-03T11:33:19;6.40;;;2.93;;
3647;SDS011;1840;48.892;15.312;2023-04-03T11:35:57;5.07;;;2.90;;
3647;SDS011;1840;48.892;15.312;2023-04-03T11:38:38;16.33;;;3.73;;
3647;SDS011;1840;48.892;15.312;2023-04-03T11:41:11;3.73;;;2.20;;
3647;SDS011;1840;48.892;15.312;2023-04-03T11:43:41;4.57;;;2.60;;
3647;SDS011;1840;48.892;15.312;2023-04-03T11:46:24;6.07;;;2.60;;
3647;SDS011;1840;48.892;15.312;2023-04-03T11:58:22;4.70;;;2.00;;
3647;SDS011;1840;48.892;15.312;2023-04-03T12:09:57;6.03;;;3.10;;
3647;SDS011;1840;48.892;15.312;2023-04-03T12:12:31;4.63;;;2.90;;
3647;SDS011;1840;48.892;15.312;2023-04-03T12:15:18;6.60;;;2.73;;
3647;SDS011;1840;48.892;15.312;2023-04-03T12:21:00;3.40;;;1.93;;
3647;SDS011;1840;48.892;15.312;2023-04-03T12:23:30;3.90;;;2.13;;
3647;SDS011;1840;48.892;15.312;2023-04-03T12:26:02;4.23;;;2.40;;
3647;SDS011;1840;48.892;15.312;2023-04-03T12:28:48;5.67;;;2.80;;
3647;SDS011;1840;48.892;15.312;2023-04-03T12:31:19;5.23;;;2.10;;
3647;SDS011;1840;48.892;15.312;2023-04-03T12:36:49;5.23;;;2.60;;
3647;SDS011;1840;48.892;15.312;2023-04-03T12:39:36;5.37;;;2.50;;
3647;SDS011;1840;48.892;15.312;2023-04-03T12:42:21;5.40;;;2.40;;
3647;SDS011;1840;48.892;15.312;2023-04-03T12:45:08;4.03;;;2.17;;
3647;SDS011;1840;48.892;15.312;2023-04-03T12:47:42;3.30;;;2.17;;
3647;SDS011;1840;48.892;15.312;2023-04-03T12:52:49;6.17;;;2.70;;
3647;SDS011;1840;48.892;15.312;2023-04-03T12:55:22;3.77;;;1.93;;
3647;SDS011;1840;48.892;15.312;2023-04-03T12:57:50;6.43;;;2.27;;
3647;SDS011;1840;48.892;15.312;2023-04-03T13:00:25;5.07;;;2.03;;
3647;SDS011;1840;48.892;15.312;2023-04-03T13:03:00;5.73;;;2.20;;
3647;SDS011;1840;48.892;15.312;2023-04-03T13:05:30;6.33;;;2.30;;
3647;SDS011;1840;48.892;15.312;2023-04-03T13:08:05;4.50;;;2.50;;
3647;SDS011;1840;48.892;15.312;2023-04-03T13:10:43;3.93;;;2.30;;
3647;SDS011;1840;48.892;15.312;2023-04-03T13:13:18;4.43;;;2.60;;
3647;SDS011;1840;48.892;15.312;2023-04-03T13:15:47;6.80;;;2.23;;
3647;SDS011;1840;48.892;15.312;2023-04-03T13:18:27;6.00;;;2.40;;
3647;SDS011;1840;48.892;15.312;2023-04-03T13:20:58;9.53;;;2.67;;
3647;SDS011;1840;48.892;15.312;2023-04-03T13:23:34;4.33;;;2.20;;
3647;SDS011;1840;48.892;15.312;2023-04-03T13:26:06;5.13;;;2.33;;
3647;SDS011;1840;48.892;15.312;2023-04-03T13:28:35;4.23;;;2.17;;
3647;SDS011;1840;48.892;15.312;2023-04-03T13:31:06;5.10;;;2.33;;
3647;SDS011;1840;48.892;15.312;2023-04-03T13:33:37;5.53;;;2.03;;
3647;SDS011;1840;48.892;15.312;2023-04-03T13:36:07;3.40;;;2.10;;
3647;SDS011;1840;48.892;15.312;2023-04-03T13:38:44;6.90;;;1.97;;
3647;SDS011;1840;48.892;15.312;2023-04-03T13:41:24;10.87;;;2.50;;
3647;SDS011;1840;48.892;15.312;2023-04-03T13:43:56;3.63;;;2.30;;
3647;SDS011;1840;48.892;15.312;2023-04-03T13:46:41;4.77;;;2.50;;
3647;SDS011;1840;48.892;15.312;2023-04-03T13:49:20;9.53;;;2.50;;
3647;SDS011;1840;48.892;15.312;2023-04-03T13:51:49;5.03;;;2.40;;
3647;SDS011;1840;48.892;15.312;2023-04-03T13:54:34;6.00;;;2.30;;
3647;SDS011;1840;48.892;15.312;2023-04-03T13:57:10;12.10;;;2.70;;
3647;SDS011;1840;48.892;15.312;2023-04-03T13:59:40;9.03;;;2.63;;
3647;SDS011;1840;48.892;15.312;2023-04-03T14:02:11;18.53;;;3.30;;
3647;SDS011;1840;48.892;15.312;2023-04-03T14:04:51;4.53;;;2.50;;
3647;SDS011;1840;48.892;15.312;2023-04-03T14:07:24;5.40;;;2.60;;
3647;SDS011;1840;48.892;15.312;2023-04-03T14:09:55;4.67;;;2.23;;
3647;SDS011;1840;48.892;15.312;2023-04-03T14:12:24;11.13;;;3.27;;
3647;SDS011;1840;48.892;15.312;2023-04-03T14:14:57;3.60;;;2.13;;
3647;SDS011;1840;48.892;15.312;2023-04-03T14:17:26;5.40;;;2.13;;
3647;SDS011;1840;48.892;15.312;2023-04-03T14:19:55;5.83;;;2.57;;
3647;SDS011;1840;48.892;15.312;2023-04-03T14:22:26;4.07;;;2.40;;
3647;SDS011;1840;48.892;15.312;2023-04-03T14:24:57;6.20;;;2.73;;
3647;SDS011;1840;48.892;15.312;2023-04-03T14:27:27;4.57;;;2.40;;
3647;SDS011;1840;48.892;15.312;2023-04-03T14:29:57;4.33;;;2.70;;
3647;SDS011;1840;48.892;15.312;2023-04-03T14:32:26;4.37;;;2.33;;
3647;SDS011;1840;48.892;15.312;2023-04-03T14:34:55;8.60;;;2.30;;
3647;SDS011;1840;48.892;15.312;2023-04-03T14:37:25;7.77;;;2.73;;
3647;SDS011;1840;48.892;15.312;2023-04-03T14:39:57;3.90;;;1.97;;
3647;SDS011;1840;48.892;15.312;2023-04-03T14:42:28;10.13;;;3.17;;
3647;SDS011;1840;48.892;15.312;2023-04-03T14:44:58;6.67;;;2.67;;
3647;SDS011;1840;48.892;15.312;2023-04-03T14:47:28;3.60;;;2.20;;
3647;SDS011;1840;48.892;15.312;2023-04-03T14:49:58;3.57;;;2.17;;
3647;SDS011;1840;48.892;15.312;2023-04-03T14:52:27;6.27;;;2.73;;
3647;SDS011;1840;48.892;15.312;2023-04-03T14:54:59;5.13;;;2.30;;
3647;SDS011;1840;48.892;15.312;2023-04-03T14:57:28;4.33;;;2.27;;
3647;SDS011;1840;48.892;15.312;2023-04-03T14:59:57;4.73;;;2.43;;
3647;SDS011;1840;48.892;15.312;2023-04-03T15:02:28;7.17;;;2.90;;
3647;SDS011;1840;48.892;15.312;2023-04-03T15:04:58;4.67;;;2.63;;
3647;SDS011;1840;48.892;15.312;2023-04-03T15:07:27;4.20;;;2.20;;
3647;SDS011;1840;48.892;15.312;2023-04-03T15:10:15;4.97;;;2.60;;
3647;SDS011;1840;48.892;15.312;2023-04-03T15:12:45;5.33;;;2.30;;
3647;SDS011;1840;48.892;15.312;2023-04-03T15:15:14;5.33;;;2.10;;
3647;SDS011;1840;48.892;15.312;2023-04-03T15:17:43;5.70;;;2.73;;
3647;SDS011;1840;48.892;15.312;2023-04-03T15:20:13;4.50;;;2.50;;
3647;SDS011;1840;48.892;15.312;2023-04-03T15:22:42;5.90;;;2.53;;
3647;SDS011;1840;48.892;15.312;2023-04-03T15:25:12;5.90;;;2.60;;
3647;SDS011;1840;48.892;15.312;2023-04-03T15:27:40;4.40;;;2.63;;
3647;SDS011;1840;48.892;15.312;2023-04-03T15:30:11;3.73;;;2.20;;
3647;SDS011;1840;48.892;15.312;2023-04-03T15:32:42;7.57;;;2.63;;
3647;SDS011;1840;48.892;15.312;2023-04-03T15:35:10;4.90;;;2.40;;
3647;SDS011;1840;48.892;15.312;2023-04-03T15:37:38;7.87;;;2.77;;
3647;SDS011;1840;48.892;15.312;2023-04-03T15:40:07;7.03;;;2.30;;
3647;SDS011;1840;48.892;15.312;2023-04-03T15:42:37;4.30;;;2.30;;
3647;SDS011;1840;48.892;15.312;2023-04-03T15:45:06;5.10;;;2.70;;
3647;SDS011;1840;48.892;15.312;2023-04-03T15:47:35;8.80;;;2.40;;
3647;SDS011;1840;48.892;15.312;2023-04-03T15:50:03;6.03;;;2.10;;
3647;SDS011;1840;48.892;15.312;2023-04-03T15:52:34;6.40;;;2.13;;
3647;SDS011;1840;48.892;15.312;2023-04-03T15:55:02;6.23;;;2.47;;